Time;durP1;ratioP1;P1;durP2;ratioP2;P2;SDS_P1;SDS_P2;PMS_P1;PMS_P2;Temp;Humidity;BMP_temperature;BMP_pressure;BME280_temperature;BME280_humidity;BME280_pressure;Samples;Min_cycle;Max_cycle;Signal;HPM_P1;HPM_P2
2022/04/02 00:01:22;;;;;;;2.92;2.15;;;-1.90;99.90;;;;;;5004039;28;20157;-63
2022/04/02 00:03:49;;;;;;;7.63;3.03;;;-1.90;99.90;;;;;;5006850;28;20072;-62
2022/04/02 00:06:17;;;;;;;4.70;2.42;;;-1.90;99.90;;;;;;5004954;28;20132;-65
2022/04/02 00:08:44;;;;;;;4.43;2.20;;;-1.90;99.90;;;;;;5006014;28;20046;-68
2022/04/02 00:11:11;;;;;;;3.92;2.28;;;-1.90;99.90;;;;;;4998999;28;20145;-62
2022/04/02 00:13:38;;;;;;;2.95;2.17;;;-1.90;99.90;;;;;;5003535;28;20049;-63
2022/04/02 00:16:06;;;;;;;2.60;2.10;;;-1.90;99.90;;;;;;5017336;28;20060;-62
2022/04/02 00:18:33;;;;;;;3.85;2.55;;;-1.90;99.90;;;;;;5014286;28;20050;-62
2022/04/02 00:21:00;;;;;;;4.85;2.50;;;-1.90;99.90;;;;;;5010726;28;20045;-64
2022/04/02 00:23:36;;;;;;;4.60;1.90;;;-1.90;99.90;;;;;;5005569;28;20670;-66
2022/04/02 00:26:04;;;;;;;2.88;1.88;;;-1.90;99.90;;;;;;5002054;28;20049;-64
2022/04/02 00:28:38;;;;;;;3.97;2.75;;;-1.90;99.90;;;;;;5008582;28;20052;-64
2022/04/02 00:31:09;;;;;;;3.63;2.15;;;-1.90;99.90;;;;;;5008355;28;20478;-63
2022/04/02 00:33:38;;;;;;;3.85;2.30;;;-1.90;99.90;;;;;;5012462;28;20483;-64
2022/04/02 00:36:07;;;;;;;2.30;2.10;;;-1.90;99.90;;;;;;5006498;28;20076;-63
2022/04/02 00:38:35;;;;;;;3.47;2.70;;;-1.90;99.90;;;;;;5004729;28;20057;-64
2022/04/02 00:41:02;;;;;;;8.65;2.88;;;-1.90;99.90;;;;;;5007370;28;20108;-67
2022/04/02 00:43:37;;;;;;;5.05;2.75;;;-1.90;99.90;;;;;;5003297;28;20156;-65
2022/04/02 00:46:10;;;;;;;3.90;2.83;;;-2.00;99.90;;;;;;5006139;28;20115;-64
2022/04/02 00:48:38;;;;;;;4.07;2.95;;;-2.00;99.90;;;;;;5004271;28;20062;-62
2022/04/02 00:51:07;;;;;;;5.63;2.72;;;-2.00;99.90;;;;;;5009998;28;20289;-63
2022/04/02 00:53:40;;;;;;;6.20;3.15;;;-2.10;99.90;;;;;;5008785;28;20054;-64
2022/04/02 00:56:07;;;;;;;3.65;2.40;;;-2.10;99.90;;;;;;5004852;28;20076;-63
2022/04/02 00:58:34;;;;;;;3.22;2.90;;;-2.10;99.90;;;;;;5009535;28;20064;-63
2022/04/02 01:01:01;;;;;;;4.57;3.50;;;-2.10;99.90;;;;;;5004877;28;20042;-68
2022/04/02 01:03:35;;;;;;;4.82;3.65;;;-2.20;99.90;;;;;;5003246;28;20107;-64
2022/04/02 01:06:03;;;;;;;2.90;2.10;;;-2.20;99.90;;;;;;5004995;28;20203;-62
2022/04/02 01:08:36;;;;;;;4.30;2.30;;;-2.30;99.90;;;;;;4996544;28;20073;-62
2022/04/02 01:11:03;;;;;;;2.55;2.25;;;-2.30;99.90;;;;;;5000652;28;20057;-65
2022/04/02 01:13:32;;;;;;;5.72;2.97;;;-2.30;99.90;;;;;;5000342;28;20634;-65
2022/04/02 01:16:03;;;;;;;4.47;2.67;;;-2.30;99.90;;;;;;4998368;28;20149;-63
2022/04/02 01:18:30;;;;;;;6.45;3.88;;;-2.30;99.90;;;;;;5005320;28;20054;-63
2022/04/02 01:20:58;;;;;;;2.72;2.35;;;-2.30;99.90;;;;;;4998825;28;20716;-63
2022/04/02 01:23:33;;;;;;;3.05;2.78;;;-2.20;99.90;;;;;;5011659;28;20045;-63
2022/04/02 01:26:06;;;;;;;3.22;2.85;;;-2.30;99.90;;;;;;5004778;28;20132;-65
2022/04/02 01:28:40;;;;;;;3.35;3.00;;;-2.30;99.90;;;;;;4999636;28;20488;-64
2022/04/02 01:31:13;;;;;;;3.90;3.30;;;-2.30;99.90;;;;;;5000397;28;20139;-64
2022/04/02 01:33:41;;;;;;;3.60;2.95;;;-2.30;99.90;;;;;;4998380;28;20050;-63
2022/04/02 01:36:11;;;;;;;7.30;3.33;;;-2.30;99.90;;;;;;4998532;28;20057;-65
2022/04/02 01:38:49;;;;;;;7.95;3.42;;;-2.30;99.90;;;;;;4998073;28;20038;-66
2022/04/02 01:41:17;;;;;;;3.83;2.80;;;-2.30;99.90;;;;;;4998773;28;20048;-68
2022/04/02 01:43:45;;;;;;;4.70;2.70;;;-2.30;99.90;;;;;;5007346;28;20164;-65
2022/04/02 01:46:12;;;;;;;4.28;3.28;;;-2.30;99.90;;;;;;5004496;28;20559;-66
2022/04/02 01:48:40;;;;;;;5.75;2.90;;;-2.30;99.90;;;;;;5000873;28;20068;-64
2022/04/02 01:51:08;;;;;;;8.85;2.90;;;-2.30;99.90;;;;;;5004871;28;20054;-63
2022/04/02 01:53:35;;;;;;;3.45;3.13;;;-2.30;99.90;;;;;;5008917;28;20053;-68
2022/04/02 01:56:09;;;;;;;3.17;2.85;;;-2.30;99.90;;;;;;4999932;28;20057;-63
2022/04/02 01:58:40;;;;;;;4.60;2.58;;;-2.30;99.90;;;;;;5003229;28;21706;-64
2022/04/02 02:01:11;;;;;;;5.55;3.45;;;-2.20;99.90;;;;;;4995387;28;20042;-68
2022/04/02 02:03:39;;;;;;;5.50;2.90;;;-2.20;99.90;;;;;;5017057;28;20491;-64
2022/04/02 02:06:07;;;;;;;6.88;3.03;;;-2.20;99.90;;;;;;5005431;28;20049;-64
2022/04/02 02:08:36;;;;;;;2.67;2.22;;;-2.20;99.90;;;;;;5001730;28;20129;-64
2022/04/02 02:11:21;;;;;;;3.35;2.42;;;-2.10;99.90;;;;;;5005409;28;20111;-68
2022/04/02 02:14:04;;;;;;;4.82;2.88;;;-2.10;99.90;;;;;;5001403;28;20127;-63
2022/04/02 02:16:32;;;;;;;7.70;2.85;;;-2.10;99.90;;;;;;4998585;28;20054;-64
2022/04/02 02:18:59;;;;;;;4.07;2.67;;;-2.10;99.90;;;;;;5004249;28;20454;-64
2022/04/02 02:21:26;;;;;;;4.00;2.40;;;-2.10;99.90;;;;;;5006518;28;20412;-63
2022/04/02 02:23:53;;;;;;;3.35;2.35;;;-2.10;99.90;;;;;;5009686;28;20049;-63
2022/04/02 02:26:20;;;;;;;3.47;3.17;;;-2.10;99.90;;;;;;4995939;28;20073;-63
2022/04/02 02:28:48;;;;;;;6.10;2.70;;;-2.10;99.90;;;;;;4996444;28;20050;-63
2022/04/02 02:31:23;;;;;;;6.07;3.05;;;-2.10;99.90;;;;;;4999420;28;20767;-66
2022/04/02 02:36:40;;;;;;;3.80;2.20;;;-2.10;99.90;;;;;;5001615;28;20699;-67
2022/04/02 02:39:10;;;;;;;2.53;2.28;;;-2.00;99.90;;;;;;5016947;28;20537;-63
2022/04/02 02:41:44;;;;;;;3.50;2.40;;;-2.00;99.90;;;;;;5003056;28;20084;-64
2022/04/02 02:44:22;;;;;;;4.13;2.25;;;-1.90;99.90;;;;;;5004849;28;20121;-63
2022/04/02 02:46:59;;;;;;;7.70;4.00;;;-1.90;99.90;;;;;;5000436;28;20080;-67
2022/04/02 02:49:29;;;;;;;2.47;2.28;;;-1.90;99.90;;;;;;5006783;28;20069;-63
2022/04/02 02:51:57;;;;;;;3.28;2.65;;;-1.90;99.90;;;;;;5005025;28;20042;-63
2022/04/02 02:54:27;;;;;;;2.75;2.30;;;-1.90;99.90;;;;;;5001934;28;20100;-66
2022/04/02 02:56:59;;;;;;;2.88;2.67;;;-1.90;99.90;;;;;;5001792;28;20061;-66
2022/04/02 02:59:26;;;;;;;2.95;2.28;;;-1.90;99.90;;;;;;5007533;28;20140;-66
2022/04/02 03:01:53;;;;;;;3.38;2.15;;;-1.80;99.90;;;;;;5012263;28;20142;-64
2022/04/02 03:04:21;;;;;;;3.47;2.00;;;-1.80;99.90;;;;;;5000339;28;20057;-63
2022/04/02 03:06:49;;;;;;;5.07;2.40;;;-1.70;99.90;;;;;;5001774;28;20077;-64
2022/04/02 03:09:18;;;;;;;2.17;1.98;;;-1.60;99.90;;;;;;5006337;28;20065;-65
2022/04/02 03:11:46;;;;;;;3.08;2.20;;;-1.60;99.90;;;;;;4999856;28;20562;-63
2022/04/02 03:14:15;;;;;;;2.88;2.38;;;-1.50;99.90;;;;;;5000546;28;20555;-64
2022/04/02 03:16:44;;;;;;;4.60;2.20;;;-1.50;99.90;;;;;;4998579;28;20056;-63
2022/04/02 03:19:15;;;;;;;4.32;2.08;;;-1.50;99.90;;;;;;4999714;28;20446;-67
2022/04/02 03:21:42;;;;;;;2.85;2.42;;;-1.50;99.90;;;;;;5002851;28;20132;-63
2022/04/02 03:24:10;;;;;;;4.97;2.20;;;-1.60;99.90;;;;;;5007960;28;20057;-63
2022/04/02 03:26:39;;;;;;;2.80;2.55;;;-1.50;99.90;;;;;;5004275;28;20447;-65
2022/04/02 03:29:31;;;;;;;4.47;2.65;;;-1.50;99.90;;;;;;4998405;28;20054;-67
2022/04/02 03:32:03;;;;;;;3.50;1.98;;;-1.50;99.90;;;;;;5009169;28;20092;-62
2022/04/02 03:34:31;;;;;;;2.45;2.08;;;-1.50;99.90;;;;;;4998436;28;21667;-67
2022/04/02 03:36:59;;;;;;;2.30;2.10;;;-1.50;99.90;;;;;;5001662;28;20046;-63
2022/04/02 03:39:28;;;;;;;3.80;2.22;;;-1.50;99.90;;;;;;4993280;28;20437;-63
2022/04/02 03:41:54;;;;;;;2.95;2.60;;;-1.40;99.90;;;;;;5011391;28;20061;-66
2022/04/02 03:44:22;;;;;;;3.80;2.00;;;-1.50;99.90;;;;;;5002895;28;20045;-64
2022/04/02 03:49:46;;;;;;;4.63;2.45;;;-1.40;99.90;;;;;;4992688;28;20060;-64
2022/04/02 03:52:15;;;;;;;3.35;3.10;;;-1.40;99.90;;;;;;4998582;28;20046;-66
2022/04/02 03:54:46;;;;;;;3.20;2.33;;;-1.30;99.90;;;;;;5004804;28;20806;-65
2022/04/02 03:57:14;;;;;;;3.15;2.78;;;-1.30;99.90;;;;;;5001718;28;20446;-64
2022/04/02 03:59:42;;;;;;;2.35;2.17;;;-1.40;99.90;;;;;;4992151;28;20058;-65
2022/04/02 04:02:12;;;;;;;3.83;2.20;;;-1.40;99.90;;;;;;5012673;28;20085;-64
2022/04/02 04:04:40;;;;;;;12.63;7.20;;;-1.40;99.90;;;;;;5004345;28;20053;-67
2022/04/02 04:07:08;;;;;;;2.83;2.38;;;-1.30;99.90;;;;;;4995449;28;20052;-66
2022/04/02 04:09:37;;;;;;;2.45;2.22;;;-1.30;99.90;;;;;;5004905;28;20053;-63
2022/04/02 04:12:05;;;;;;;2.67;2.17;;;-1.30;99.90;;;;;;4994409;28;20115;-63
2022/04/02 04:14:37;;;;;;;2.92;2.63;;;-1.20;99.90;;;;;;5001746;28;20077;-63
2022/04/02 04:17:04;;;;;;;4.72;2.42;;;-1.20;99.90;;;;;;5007660;28;20065;-62
2022/04/02 04:19:32;;;;;;;7.15;2.20;;;-1.20;99.90;;;;;;5009679;28;20060;-62
2022/04/02 04:22:02;;;;;;;4.03;2.50;;;-1.20;99.90;;;;;;4996431;28;20564;-63
2022/04/02 04:24:30;;;;;;;2.22;1.63;;;-1.10;99.90;;;;;;4999501;28;20053;-63
2022/04/02 04:26:58;;;;;;;4.35;2.33;;;-1.10;99.90;;;;;;4996391;28;20042;-64
2022/04/02 04:29:25;;;;;;;2.47;2.17;;;-1.10;99.90;;;;;;5001579;28;20635;-63
2022/04/02 04:31:52;;;;;;;3.63;2.47;;;-1.10;99.90;;;;;;5007452;28;20058;-64
2022/04/02 04:34:19;;;;;;;3.88;2.13;;;-1.00;99.90;;;;;;5002691;28;20060;-64
2022/04/02 04:36:46;;;;;;;2.42;2.22;;;-1.10;99.90;;;;;;5006017;28;20536;-64
2022/04/02 04:39:13;;;;;;;4.32;1.98;;;-1.10;99.90;;;;;;5001179;28;20466;-64
2022/04/02 04:41:41;;;;;;;3.13;2.83;;;-1.00;99.90;;;;;;5017701;28;20057;-63
2022/04/02 04:44:10;;;;;;;5.18;4.35;;;-1.00;99.90;;;;;;5007039;28;20059;-67
2022/04/02 04:46:40;;;;;;;5.40;2.97;;;-1.10;99.90;;;;;;5007222;28;20118;-63
2022/04/02 04:49:10;;;;;;;3.13;1.92;;;-1.10;99.90;;;;;;5003295;28;20149;-65
2022/04/02 04:51:40;;;;;;;7.57;2.85;;;-1.10;99.90;;;;;;5008225;28;20185;-64
2022/04/02 04:54:07;;;;;;;2.85;2.53;;;-1.10;99.90;;;;;;5006839;28;20054;-62
2022/04/02 04:56:39;;;;;;;2.53;2.08;;;-1.10;99.90;;;;;;5002713;28;20068;-65
2022/04/02 04:59:09;;;;;;;8.20;2.70;;;-1.10;99.90;;;;;;5004125;28;20046;-63
2022/04/02 05:01:36;;;;;;;5.13;2.13;;;-1.00;99.90;;;;;;5005611;28;20128;-63
2022/04/02 05:04:07;;;;;;;2.30;2.00;;;-1.00;99.90;;;;;;5007108;28;20588;-62
2022/04/02 05:06:41;;;;;;;5.03;1.88;;;-1.00;99.90;;;;;;5001305;28;20149;-65
2022/04/02 05:09:09;;;;;;;2.40;2.20;;;-1.00;99.90;;;;;;4995244;28;20553;-68
2022/04/02 05:11:40;;;;;;;4.10;2.10;;;-0.90;99.90;;;;;;5005935;28;20080;-66
2022/04/02 05:14:13;;;;;;;2.35;2.15;;;-0.90;99.90;;;;;;5003387;28;20075;-62
2022/04/02 05:16:43;;;;;;;3.63;2.00;;;-0.80;99.90;;;;;;4997419;28;20089;-63
2022/04/02 05:19:12;;;;;;;4.75;2.58;;;-0.80;99.90;;;;;;5009285;28;20061;-63
2022/04/02 05:21:40;;;;;;;1.80;1.63;;;-0.70;99.90;;;;;;5005541;28;20096;-66
2022/04/02 05:24:10;;;;;;;2.67;1.60;;;-0.70;99.90;;;;;;5010362;28;20046;-66
2022/04/02 05:26:41;;;;;;;4.55;2.35;;;-0.60;99.90;;;;;;5002701;28;20136;-65
2022/04/02 05:29:13;;;;;;;3.83;2.10;;;-0.60;99.90;;;;;;5027059;28;20681;-66
2022/04/02 05:31:43;;;;;;;3.42;2.50;;;-0.50;99.90;;;;;;5007963;28;20535;-66
2022/04/02 05:34:11;;;;;;;6.25;3.30;;;-0.50;99.90;;;;;;5004797;28;20477;-63
2022/04/02 05:36:38;;;;;;;5.07;2.53;;;-0.40;99.90;;;;;;4994226;28;20504;-64
2022/04/02 05:39:05;;;;;;;3.45;2.13;;;-0.40;99.90;;;;;;5004263;28;20531;-63
2022/04/02 05:41:32;;;;;;;5.78;2.38;;;-0.40;99.90;;;;;;5006452;28;20046;-63
2022/04/02 05:43:59;;;;;;;5.53;2.35;;;-0.30;99.90;;;;;;4998880;28;20050;-63
2022/04/02 05:46:26;;;;;;;4.10;2.50;;;-0.20;99.90;;;;;;4985489;28;20066;-64
2022/04/02 05:48:53;;;;;;;2.80;2.15;;;-0.10;99.90;;;;;;5006852;28;20093;-65
2022/04/02 05:51:20;;;;;;;7.10;2.70;;;-0.10;99.90;;;;;;4992522;28;20472;-64
2022/04/02 05:53:47;;;;;;;3.45;2.03;;;0.00;99.90;;;;;;5006102;28;20116;-63
2022/04/02 05:56:14;;;;;;;7.38;4.22;;;0.00;99.90;;;;;;5015249;28;20045;-63
2022/04/02 05:58:41;;;;;;;2.95;1.95;;;0.00;99.90;;;;;;4996155;28;20138;-63
2022/04/02 06:01:08;;;;;;;2.63;1.85;;;0.00;99.90;;;;;;5004831;28;20146;-63
2022/04/02 06:03:39;;;;;;;3.63;1.92;;;0.00;99.90;;;;;;4998148;28;20056;-66
2022/04/02 06:06:09;;;;;;;3.13;2.13;;;0.00;99.90;;;;;;5005455;28;20046;-64
2022/04/02 06:08:36;;;;;;;7.70;2.15;;;0.10;99.90;;;;;;5001835;28;20054;-68
2022/04/02 06:11:06;;;;;;;2.28;2.08;;;0.20;99.90;;;;;;5006310;28;20053;-67
2022/04/02 06:13:33;;;;;;;2.45;1.83;;;0.20;99.90;;;;;;4996533;28;20119;-63
2022/04/02 06:16:00;;;;;;;3.47;2.00;;;0.20;99.90;;;;;;4991224;28;20145;-66
2022/04/02 06:18:27;;;;;;;12.15;2.92;;;0.20;99.90;;;;;;4996275;28;20508;-64
2022/04/02 06:20:54;;;;;;;6.22;2.20;;;0.10;99.90;;;;;;4996498;28;20473;-86
2022/04/02 06:23:22;;;;;;;6.78;2.10;;;0.10;99.90;;;;;;5002317;28;20061;-62
2022/04/02 06:25:50;;;;;;;8.65;2.88;;;0.10;99.90;;;;;;4998090;28;20763;-68
2022/04/02 06:28:17;;;;;;;5.47;2.47;;;0.20;99.90;;;;;;4984558;28;20047;-64
2022/04/02 06:30:44;;;;;;;3.65;1.85;;;0.30;99.90;;;;;;4997373;28;20082;-63
2022/04/02 06:33:11;;;;;;;4.13;1.77;;;0.40;99.90;;;;;;5001945;28;20046;-65
2022/04/02 06:35:39;;;;;;;6.95;1.85;;;0.40;99.90;;;;;;5002637;28;20751;-64
2022/04/02 06:38:06;;;;;;;2.80;1.52;;;0.50;99.90;;;;;;4998077;28;20385;-62
2022/04/02 06:40:33;;;;;;;2.40;1.63;;;0.60;99.90;;;;;;4998743;28;20054;-65
2022/04/02 06:43:00;;;;;;;2.70;1.60;;;0.70;99.90;;;;;;4999953;28;20050;-63
2022/04/02 06:45:37;;;;;;;2.55;1.65;;;0.70;99.90;;;;;;4994536;28;20144;-62
2022/04/02 06:48:05;;;;;;;6.10;2.20;;;0.80;99.90;;;;;;4996936;28;20134;-63
2022/04/02 06:50:32;;;;;;;4.75;2.13;;;0.90;99.90;;;;;;4998526;28;20127;-63
2022/04/02 06:52:59;;;;;;;9.00;2.38;;;0.90;99.90;;;;;;4996991;28;20069;-63
2022/04/02 06:55:32;;;;;;;7.45;2.30;;;0.90;99.90;;;;;;4992653;28;20053;-62
2022/04/02 06:58:00;;;;;;;6.35;2.33;;;1.00;99.90;;;;;;5002000;28;20061;-62
2022/04/02 07:00:27;;;;;;;8.30;2.42;;;0.90;99.90;;;;;;4994628;28;20053;-63
2022/04/02 07:02:54;;;;;;;3.38;1.85;;;0.90;99.90;;;;;;4999229;28;20424;-66
2022/04/02 07:05:21;;;;;;;5.40;1.35;;;0.90;99.90;;;;;;4996493;28;20046;-63
2022/04/02 07:07:49;;;;;;;2.33;1.50;;;0.80;99.90;;;;;;5001580;28;20056;-63
2022/04/02 07:10:16;;;;;;;6.15;2.75;;;0.80;99.90;;;;;;4997143;28;20138;-62
2022/04/02 07:12:44;;;;;;;11.27;1.85;;;0.80;99.90;;;;;;4998904;28;20130;-62
2022/04/02 07:15:11;;;;;;;10.05;1.90;;;0.90;99.90;;;;;;4995863;28;20046;-65
2022/04/02 07:17:38;;;;;;;10.65;2.53;;;0.80;99.90;;;;;;4995950;28;20613;-63
2022/04/02 07:20:06;;;;;;;12.32;1.63;;;0.80;99.90;;;;;;5004325;28;20364;-64
2022/04/02 07:22:35;;;;;;;6.45;2.28;;;0.80;99.90;;;;;;4996743;28;20137;-63
2022/04/02 07:25:04;;;;;;;4.80;1.60;;;0.70;99.90;;;;;;5000428;28;20042;-62
2022/04/02 07:27:31;;;;;;;5.68;1.73;;;0.80;99.90;;;;;;5000212;28;20116;-62
2022/04/02 07:30:01;;;;;;;4.88;2.08;;;0.80;99.90;;;;;;4994711;28;20060;-63
2022/04/02 07:32:29;;;;;;;9.05;2.22;;;0.80;99.90;;;;;;4991988;28;20053;-68
2022/04/02 07:34:56;;;;;;;4.40;2.10;;;0.80;99.90;;;;;;4995908;28;20486;-63
2022/04/02 07:37:45;;;;;;;;;;;0.70;99.90;;;;;;5000829;28;20419;-64
2022/04/02 07:40:25;;;;;;;3.78;1.60;;;0.70;99.90;;;;;;5000147;28;19944;-63
2022/04/02 07:43:04;;;;;;;6.57;2.13;;;0.80;99.90;;;;;;4991464;28;20052;-63
2022/04/02 07:45:45;;;;;;;6.82;1.70;;;0.70;99.90;;;;;;5000819;28;20077;-64
2022/04/02 07:48:16;;;;;;;5.57;1.55;;;0.70;99.90;;;;;;4991326;28;20069;-65
2022/04/02 07:50:47;;;;;;;5.67;2.17;;;0.70;99.90;;;;;;5003652;28;20077;-64
2022/04/02 07:53:22;;;;;;;9.55;2.88;;;0.70;99.90;;;;;;4997235;28;20056;-65
2022/04/02 07:55:57;;;;;;;3.75;1.77;;;0.70;99.90;;;;;;5001812;28;20624;-63
2022/04/02 07:58:30;;;;;;;2.78;1.85;;;0.70;99.90;;;;;;5003018;28;20142;-63
2022/04/02 08:01:05;;;;;;;2.63;1.45;;;0.80;99.90;;;;;;5001452;28;20045;-64
2022/04/02 08:03:37;;;;;;;2.17;1.33;;;0.80;99.90;;;;;;4992799;28;20042;-67
2022/04/02 08:06:06;;;;;;;3.80;1.23;;;0.80;99.90;;;;;;4998049;28;20046;-63
2022/04/02 08:08:33;;;;;;;5.68;1.70;;;0.80;99.90;;;;;;5000017;28;20133;-62
2022/04/02 08:11:01;;;;;;;5.88;1.92;;;0.90;99.90;;;;;;5004955;28;20122;-64
2022/04/02 08:13:29;;;;;;;3.10;1.30;;;0.90;99.90;;;;;;4998538;28;20050;-62
2022/04/02 08:15:59;;;;;;;1.70;1.60;;;0.90;99.90;;;;;;5001117;28;20112;-62
2022/04/02 08:18:26;;;;;;;2.42;1.30;;;0.90;99.90;;;;;;4998712;28;20145;-63
2022/04/02 08:20:54;;;;;;;5.10;1.83;;;0.90;99.90;;;;;;4999568;28;20148;-62
2022/04/02 08:23:29;;;;;;;3.00;1.50;;;0.90;99.90;;;;;;5012565;28;20065;-62
2022/04/02 08:26:07;;;;;;;5.28;1.98;;;0.90;99.90;;;;;;4998318;28;20069;-62
2022/04/02 08:29:02;;;;;;;5.17;3.13;;;0.90;99.90;;;;;;5000736;28;20136;-62
2022/04/02 08:31:54;;;;;;;1.77;1.50;;;0.90;99.90;;;;;;5006585;28;20127;-63
2022/04/02 08:34:55;;;;;;;3.33;1.77;;;0.90;99.90;;;;;;5003901;28;20077;-63
2022/04/02 08:37:34;;;;;;;4.15;1.50;;;1.00;99.90;;;;;;4998052;28;20053;-64
2022/04/02 08:40:20;;;;;;;1.63;1.13;;;1.10;99.90;;;;;;4998935;28;20088;-63
2022/04/02 08:42:56;;;;;;;3.88;1.40;;;1.00;99.90;;;;;;4992662;28;20345;-64
2022/04/02 08:45:32;;;;;;;4.30;1.45;;;1.00;99.90;;;;;;5005193;28;20049;-62
2022/04/02 08:48:31;;;;;;;3.70;1.60;;;1.00;99.90;;;;;;4997181;28;20050;-63
2022/04/02 08:51:13;;;;;;;4.05;1.95;;;1.00;99.90;;;;;;4992978;28;20073;-63
2022/04/02 08:53:43;;;;;;;3.70;1.30;;;1.00;99.90;;;;;;4998765;28;20177;-63
2022/04/02 08:56:16;;;;;;;4.38;1.73;;;0.90;99.90;;;;;;4999535;28;20192;-66
2022/04/02 08:59:17;;;;;;;5.80;2.28;;;0.90;99.90;;;;;;5003508;28;20138;-64
2022/04/02 09:01:53;;;;;;;1.55;1.25;;;1.00;99.90;;;;;;4994794;28;20141;-63
2022/04/02 09:04:41;;;;;;;2.10;1.60;;;1.20;99.90;;;;;;4998288;28;20538;-63
2022/04/02 09:07:51;;;;;;;3.22;1.50;;;1.30;99.90;;;;;;4998802;28;20527;-63
2022/04/02 09:10:48;;;;;;;5.82;2.05;;;1.30;99.90;;;;;;4972031;28;20465;-63
2022/04/02 09:13:31;;;;;;;1.83;1.27;;;1.30;99.90;;;;;;4995508;28;20946;-66
2022/04/02 09:16:08;;;;;;;6.55;1.70;;;1.40;99.90;;;;;;4997742;28;20150;-63
2022/04/02 09:18:39;;;;;;;9.65;2.55;;;1.50;99.90;;;;;;5004439;28;20041;-65
2022/04/02 09:21:29;;;;;;;6.63;2.75;;;1.50;99.90;;;;;;4997604;28;20117;-62
2022/04/02 09:23:59;;;;;;;4.95;1.40;;;1.60;99.90;;;;;;4999389;28;20129;-62
2022/04/02 09:26:51;;;;;;;3.30;1.80;;;1.60;99.90;;;;;;5004306;28;20049;-64
2022/04/02 09:29:59;;;;;;;4.63;1.90;;;1.70;99.90;;;;;;5002568;28;20403;-64
2022/04/02 09:33:03;;;;;;;2.63;1.92;;;1.70;99.90;;;;;;4995913;28;20108;-63
2022/04/02 09:36:10;;;;;;;3.33;1.35;;;1.80;99.90;;;;;;4996465;28;20045;-64
2022/04/02 09:38:43;;;;;;;5.35;1.80;;;1.80;99.90;;;;;;4994732;28;20049;-64
2022/04/02 09:41:18;;;;;;;2.67;1.63;;;1.90;99.90;;;;;;4999762;28;20100;-62
2022/04/02 09:44:22;;;;;;;9.27;1.92;;;1.90;99.90;;;;;;4997307;28;20450;-62
2022/04/02 09:46:55;;;;;;;1.63;1.50;;;1.90;99.90;;;;;;5001042;28;20050;-64
2022/04/02 09:49:33;;;;;;;4.57;1.17;;;1.90;99.90;;;;;;5002185;28;20042;-63
2022/04/02 09:52:05;;;;;;;1.50;1.38;;;1.80;99.90;;;;;;4998986;28;20461;-65
2022/04/02 09:54:38;;;;;;;4.68;1.80;;;1.80;99.90;;;;;;4991497;28;20819;-63
2022/04/02 09:57:17;;;;;;;4.68;1.10;;;1.90;99.90;;;;;;5001855;28;20834;-65
2022/04/02 09:59:55;;;;;;;6.57;1.35;;;1.90;99.90;;;;;;5005177;28;20132;-66
2022/04/02 10:02:37;;;;;;;7.13;1.92;;;1.90;99.90;;;;;;5001637;28;20224;-64
2022/04/02 10:05:07;;;;;;;5.60;2.45;;;2.00;99.90;;;;;;5001357;28;20150;-62
2022/04/02 10:08:08;;;;;;;5.07;1.30;;;2.10;99.90;;;;;;4996959;28;20065;-65
2022/04/02 10:10:38;;;;;;;6.57;1.85;;;2.20;99.90;;;;;;4995965;28;20089;-64
2022/04/02 10:13:06;;;;;;;3.05;2.75;;;2.30;99.90;;;;;;5002414;28;20041;-63
2022/04/02 10:15:36;;;;;;;5.53;1.67;;;2.20;99.90;;;;;;4996917;28;20113;-64
2022/04/02 10:18:04;;;;;;;4.28;1.35;;;2.20;99.90;;;;;;5005242;28;20128;-63
2022/04/02 10:20:33;;;;;;;9.07;1.88;;;2.30;99.90;;;;;;4996911;28;20204;-64
2022/04/02 10:23:15;;;;;;;3.30;1.47;;;2.30;99.90;;;;;;5004151;28;20065;-64
2022/04/02 10:26:17;;;;;;;2.60;1.45;;;2.30;99.90;;;;;;4997258;28;20127;-68
2022/04/02 10:28:48;;;;;;;2.75;1.52;;;2.30;99.90;;;;;;4997400;28;20199;-64
2022/04/02 10:31:24;;;;;;;;;;;2.20;99.90;;;;;;5003509;28;20104;-64
2022/04/02 10:33:58;;;;;;;5.30;1.48;;;2.30;99.90;;;;;;5005684;28;19941;-64
2022/04/02 10:36:25;;;;;;;2.80;1.25;;;2.30;99.90;;;;;;5006370;28;20398;-63
2022/04/02 10:38:53;;;;;;;6.57;1.58;;;2.30;99.90;;;;;;5006932;28;20511;-63
2022/04/02 10:41:22;;;;;;;6.15;2.50;;;2.30;99.90;;;;;;4999304;28;20059;-65
2022/04/02 10:44:00;;;;;;;2.15;1.58;;;2.40;99.90;;;;;;5006650;28;20170;-63
2022/04/02 10:46:27;;;;;;;4.85;2.22;;;2.40;99.90;;;;;;5001265;28;20145;-64
2022/04/02 10:49:00;;;;;;;2.67;1.23;;;2.30;99.90;;;;;;4999560;28;20153;-63
2022/04/02 10:51:30;;;;;;;5.10;1.65;;;2.40;99.90;;;;;;4996142;28;20058;-62
2022/04/02 10:54:07;;;;;;;1.30;1.20;;;2.50;99.90;;;;;;4995325;28;20132;-62
2022/04/02 10:56:44;;;;;;;2.60;1.45;;;2.40;99.90;;;;;;4995825;28;20465;-62
2022/04/02 10:59:15;;;;;;;2.35;1.33;;;2.50;99.90;;;;;;4992605;28;20136;-62
2022/04/02 11:01:46;;;;;;;2.72;2.03;;;2.40;99.90;;;;;;5000175;28;20137;-64
2022/04/02 11:04:33;;;;;;;5.22;2.45;;;2.50;99.90;;;;;;4996866;28;20046;-63
2022/04/02 11:07:00;;;;;;;2.10;1.55;;;2.70;99.90;;;;;;4992081;28;20057;-65
2022/04/02 11:09:29;;;;;;;2.65;1.25;;;2.70;99.90;;;;;;5004456;28;20526;-63
2022/04/02 11:12:07;;;;;;;1.92;1.50;;;2.70;99.90;;;;;;4999960;28;20042;-66
2022/04/02 11:14:45;;;;;;;3.15;1.80;;;2.60;99.90;;;;;;4995355;28;20139;-62
2022/04/02 11:17:30;;;;;;;4.80;1.48;;;2.60;99.90;;;;;;4998592;28;20232;-63
2022/04/02 11:20:12;;;;;;;2.65;1.58;;;2.60;99.90;;;;;;5002070;28;20041;-64
2022/04/02 11:22:51;;;;;;;2.03;1.30;;;2.70;99.90;;;;;;5002258;28;20080;-65
2022/04/02 11:25:24;;;;;;;5.00;1.80;;;2.70;99.90;;;;;;5001718;28;20115;-65
2022/04/02 11:27:55;;;;;;;3.05;1.52;;;2.70;99.90;;;;;;5003162;28;20439;-64
2022/04/02 11:30:28;;;;;;;3.92;1.80;;;2.70;99.90;;;;;;4996118;28;20049;-64
2022/04/02 11:33:06;;;;;;;3.03;1.60;;;2.70;99.90;;;;;;4999223;28;20046;-62
2022/04/02 11:35:39;;;;;;;1.48;1.38;;;2.80;99.90;;;;;;5002915;28;20103;-66
2022/04/02 11:38:23;;;;;;;4.35;1.65;;;2.80;99.90;;;;;;5002286;28;20050;-65
2022/04/02 11:41:09;;;;;;;6.15;1.85;;;2.80;99.90;;;;;;4998717;28;20418;-65
2022/04/02 11:43:39;;;;;;;1.85;1.33;;;2.80;99.90;;;;;;5000787;28;20133;-64
2022/04/02 11:46:09;;;;;;;3.22;1.70;;;2.80;99.90;;;;;;4999396;28;20824;-63
2022/04/02 11:48:55;;;;;;;2.05;1.85;;;2.80;99.90;;;;;;5003974;28;20519;-68
2022/04/02 11:51:25;;;;;;;2.17;1.73;;;2.80;99.90;;;;;;5005149;28;20121;-63
2022/04/02 11:53:58;;;;;;;3.47;1.88;;;2.90;99.90;;;;;;5002302;28;20049;-68
2022/04/02 11:56:26;;;;;;;1.92;1.38;;;3.00;99.90;;;;;;5002179;28;20045;-64
2022/04/02 11:58:55;;;;;;;2.55;2.30;;;2.90;99.90;;;;;;5008035;28;20042;-62
2022/04/02 12:01:23;;;;;;;3.70;1.63;;;3.00;99.90;;;;;;4995235;28;20062;-63
2022/04/02 12:04:13;;;;;;;2.00;1.58;;;3.00;99.90;;;;;;5006896;28;20121;-64
2022/04/02 12:06:43;;;;;;;2.22;1.55;;;3.00;99.90;;;;;;5009827;28;20046;-64
2022/04/02 12:09:12;;;;;;;4.03;1.27;;;3.00;99.90;;;;;;4999636;28;20041;-63
2022/04/02 12:11:51;;;;;;;2.50;1.50;;;2.90;99.90;;;;;;5003903;28;20140;-66
2022/04/02 12:14:33;;;;;;;1.65;1.55;;;2.90;99.90;;;;;;5005158;28;20161;-66
2022/04/02 12:17:00;;;;;;;6.82;1.70;;;3.00;99.90;;;;;;4995601;28;20096;-63
2022/04/02 12:19:52;;;;;;;1.55;1.38;;;3.00;99.90;;;;;;5012652;28;20061;-63
2022/04/02 12:22:25;;;;;;;3.20;2.13;;;3.20;99.90;;;;;;4998718;28;20061;-63
2022/04/02 12:24:55;;;;;;;2.45;1.42;;;3.00;99.90;;;;;;4992177;28;20065;-64
2022/04/02 12:27:33;;;;;;;1.67;1.45;;;3.10;99.90;;;;;;4998681;28;20048;-64
2022/04/02 12:30:06;;;;;;;1.95;1.75;;;2.90;99.90;;;;;;5003209;28;20124;-63
2022/04/02 12:32:35;;;;;;;3.17;1.42;;;2.80;99.90;;;;;;4991476;28;20045;-64
2022/04/02 12:35:24;;;;;;;3.08;1.63;;;2.90;99.90;;;;;;4997130;28;20041;-64
2022/04/02 12:37:57;;;;;;;12.57;2.15;;;3.00;99.90;;;;;;4996301;28;20085;-64
2022/04/02 12:40:25;;;;;;;2.15;1.42;;;3.10;99.90;;;;;;4998754;28;20690;-64
2022/04/02 12:42:54;;;;;;;1.80;1.13;;;3.10;99.90;;;;;;4991225;28;20128;-63
2022/04/02 12:45:24;;;;;;;;;;;2.70;99.90;;;;;;4999116;28;20053;-64
2022/04/02 12:48:00;;;;;;;2.25;1.35;;;2.70;99.90;;;;;;4991052;28;20017;-63
2022/04/02 12:50:30;;;;;;;2.13;1.70;;;2.80;99.90;;;;;;4994586;28;20069;-67
2022/04/02 12:52:57;;;;;;;3.07;2.77;;;2.80;99.90;;;;;;4999704;28;20096;-65
2022/04/02 12:55:27;;;;;;;2.42;1.30;;;2.90;99.90;;;;;;5003968;28;20144;-63
2022/04/02 12:58:15;;;;;;;;;;;3.00;99.90;;;;;;4993843;28;20050;-63
2022/04/02 13:00:44;;;;;;;2.05;1.48;;;2.90;99.90;;;;;;4990410;28;20028;-64
2022/04/02 13:03:33;;;;;;;2.42;2.22;;;3.00;99.90;;;;;;4992331;28;20058;-65
2022/04/02 13:06:02;;;;;;;3.05;1.90;;;2.90;99.90;;;;;;4998168;28;20120;-66
2022/04/02 13:08:29;;;;;;;3.70;1.63;;;3.00;99.90;;;;;;4998636;28;20137;-68
2022/04/02 13:10:59;;;;;;;6.45;1.90;;;3.10;99.90;;;;;;4989723;28;20124;-65
2022/04/02 13:13:40;;;;;;;3.80;1.77;;;3.20;99.90;;;;;;4995616;28;20077;-64
2022/04/02 13:16:09;;;;;;;1.73;1.63;;;3.20;99.90;;;;;;5002021;28;20668;-63
2022/04/02 13:21:42;;;;;;;2.08;1.63;;;3.00;99.90;;;;;;4991789;28;20402;-64
2022/04/02 13:24:29;;;;;;;6.88;1.77;;;3.20;99.90;;;;;;5003183;28;20240;-64
2022/04/02 13:27:08;;;;;;;3.45;1.55;;;2.90;99.90;;;;;;4990121;28;20046;-64
2022/04/02 13:29:41;;;;;;;1.80;1.70;;;3.00;99.90;;;;;;5000928;28;20107;-63